Time;durP1;ratioP1;P1;durP2;ratioP2;P2;SDS_P1;SDS_P2;PMS_P1;PMS_P2;Temp;Humidity;BMP_temperature;BMP_pressure;BME280_temperature;BME280_humidity;BME280_pressure;Samples;Min_cycle;Max_cycle;Signal;HPM_P1;HPM_P2
2022/07/11 00:02:11;;;;;;;3.60;2.17;;;18.20;99.90;;;;;;5033343;28;20034;-47
2022/07/11 00:04:37;;;;;;;4.25;2.15;;;18.20;99.90;;;;;;5015042;28;20049;-52
2022/07/11 00:07:03;;;;;;;2.25;2.05;;;18.10;99.90;;;;;;5012691;28;20513;-49
2022/07/11 00:09:30;;;;;;;3.15;2.30;;;18.10;99.90;;;;;;5013436;28;20034;-51
2022/07/11 00:11:56;;;;;;;2.25;2.05;;;18.10;99.90;;;;;;5012646;28;20092;-47
2022/07/11 00:14:22;;;;;;;2.58;2.38;;;18.10;99.90;;;;;;5011663;28;20076;-48
2022/07/11 00:16:52;;;;;;;6.20;2.17;;;18.00;99.90;;;;;;5012678;28;20112;-50
2022/07/11 00:19:19;;;;;;;6.18;2.55;;;18.10;99.90;;;;;;5012963;28;20080;-48
2022/07/11 00:21:46;;;;;;;3.97;2.50;;;18.00;99.90;;;;;;5012837;28;20391;-48
2022/07/11 00:24:11;;;;;;;2.20;2.10;;;18.00;99.90;;;;;;5013149;28;20029;-50
2022/07/11 00:26:37;;;;;;;3.15;2.08;;;17.90;99.90;;;;;;5012942;28;20044;-51
2022/07/11 00:29:04;;;;;;;7.80;3.08;;;17.90;99.90;;;;;;5024458;28;20021;-50
2022/07/11 00:31:30;;;;;;;7.40;2.35;;;17.90;99.90;;;;;;5033157;28;20497;-51
2022/07/11 00:33:57;;;;;;;2.75;2.63;;;17.90;99.90;;;;;;5013091;28;20037;-48
2022/07/11 00:36:22;;;;;;;4.00;2.60;;;17.90;99.90;;;;;;5018653;28;20048;-48
2022/07/11 00:38:48;;;;;;;3.20;2.47;;;17.80;99.90;;;;;;5022773;28;20438;-50
2022/07/11 00:41:14;;;;;;;5.28;2.42;;;17.80;99.90;;;;;;5012462;28;20037;-51
2022/07/11 00:43:41;;;;;;;4.45;2.30;;;17.80;99.90;;;;;;5028677;28;20393;-49
2022/07/11 00:46:08;;;;;;;2.25;2.10;;;17.80;99.90;;;;;;5027590;28;20040;-50
2022/07/11 00:48:37;;;;;;;6.70;3.00;;;17.80;99.90;;;;;;5011909;28;20018;-51
2022/07/11 00:51:04;;;;;;;4.75;2.78;;;17.80;99.90;;;;;;5012627;28;20029;-50
2022/07/11 00:53:31;;;;;;;2.90;2.60;;;17.80;99.90;;;;;;5012623;28;20053;-50
2022/07/11 00:55:57;;;;;;;5.88;3.22;;;17.70;99.90;;;;;;5012537;28;20502;-46
2022/07/11 00:58:24;;;;;;;4.72;3.10;;;17.70;99.90;;;;;;5011629;28;20117;-46
2022/07/11 01:00:50;;;;;;;3.75;2.80;;;17.60;99.90;;;;;;5013644;28;20037;-48
2022/07/11 01:03:16;;;;;;;5.95;2.53;;;17.50;99.90;;;;;;5011151;28;20026;-48
2022/07/11 01:05:42;;;;;;;4.43;3.05;;;17.50;99.90;;;;;;5012407;28;20030;-49
2022/07/11 01:08:07;;;;;;;3.17;2.97;;;17.50;99.90;;;;;;5010517;28;20022;-47
2022/07/11 01:10:33;;;;;;;3.92;3.58;;;17.40;99.90;;;;;;5011082;28;20490;-49
2022/07/11 01:12:59;;;;;;;10.90;4.07;;;17.30;99.90;;;;;;5012422;28;20366;-48
2022/07/11 01:15:25;;;;;;;5.10;3.88;;;17.30;99.90;;;;;;5012295;28;20117;-45
2022/07/11 01:17:53;;;;;;;5.60;4.57;;;17.40;99.90;;;;;;5011635;28;20026;-46
2022/07/11 01:20:20;;;;;;;3.42;3.13;;;17.40;99.90;;;;;;5012066;28;20105;-47
2022/07/11 01:23:03;;;;;;;4.68;3.00;;;17.40;99.90;;;;;;5012224;28;20501;-47
2022/07/11 01:25:30;;;;;;;5.20;3.00;;;17.40;99.90;;;;;;5011677;28;20061;-45
2022/07/11 01:27:57;;;;;;;3.85;2.88;;;17.50;99.90;;;;;;5011049;28;20018;-48
2022/07/11 01:30:23;;;;;;;6.22;3.03;;;17.50;99.90;;;;;;5011993;28;20031;-50
2022/07/11 01:32:51;;;;;;;4.13;2.92;;;17.50;99.90;;;;;;5011945;28;20041;-46
2022/07/11 01:35:16;;;;;;;7.95;4.03;;;17.50;99.90;;;;;;5012459;28;20036;-47
2022/07/11 01:37:42;;;;;;;7.57;3.30;;;17.50;99.90;;;;;;5011284;28;20400;-48
2022/07/11 01:40:08;;;;;;;4.60;2.88;;;17.50;99.90;;;;;;5011926;28;20036;-48
2022/07/11 01:42:33;;;;;;;3.83;3.00;;;17.40;99.90;;;;;;5011894;28;20485;-45
2022/07/11 01:44:59;;;;;;;3.65;3.33;;;17.40;99.90;;;;;;5012251;28;20030;-47
2022/07/11 01:47:24;;;;;;;3.30;3.10;;;17.40;99.90;;;;;;5011192;28;20105;-47
2022/07/11 01:49:50;;;;;;;3.20;3.00;;;17.40;99.90;;;;;;5011940;28;20038;-50
2022/07/11 01:52:15;;;;;;;3.70;3.30;;;17.30;99.90;;;;;;5034530;22;20526;-51
2022/07/11 01:54:41;;;;;;;3.95;3.40;;;17.30;99.90;;;;;;4994177;28;20026;-54
2022/07/11 01:57:06;;;;;;;4.93;3.65;;;17.30;99.90;;;;;;4993372;28;20229;-50
2022/07/11 01:59:31;;;;;;;4.78;3.50;;;17.30;99.90;;;;;;5011594;28;20029;-50
2022/07/11 02:01:58;;;;;;;3.85;3.17;;;17.30;99.90;;;;;;5011296;28;20034;-53
2022/07/11 02:04:24;;;;;;;4.45;2.90;;;17.30;99.90;;;;;;5010694;28;20025;-47
2022/07/11 02:06:49;;;;;;;5.63;3.10;;;17.30;99.90;;;;;;5011652;28;20113;-51
2022/07/11 02:09:14;;;;;;;3.20;2.90;;;17.30;99.90;;;;;;5011069;28;20498;-53
2022/07/11 02:11:40;;;;;;;3.10;2.80;;;17.30;99.90;;;;;;5011694;28;20041;-56
2022/07/11 02:14:05;;;;;;;6.15;3.15;;;17.30;99.90;;;;;;5011942;28;20493;-53
2022/07/11 02:16:31;;;;;;;3.88;3.42;;;17.30;99.90;;;;;;5011484;28;20117;-47
2022/07/11 02:18:56;;;;;;;5.38;3.40;;;17.30;99.90;;;;;;5011022;28;20481;-54
2022/07/11 02:21:22;;;;;;;3.88;3.05;;;17.30;99.90;;;;;;5011343;28;20045;-54
2022/07/11 02:23:47;;;;;;;4.18;3.15;;;17.30;99.90;;;;;;5011502;28;20052;-52
2022/07/11 02:26:13;;;;;;;3.92;3.50;;;17.30;99.90;;;;;;5011686;28;20037;-53
2022/07/11 02:28:40;;;;;;;5.43;3.28;;;17.30;99.90;;;;;;5010830;28;20034;-50
2022/07/11 02:31:05;;;;;;;4.30;3.15;;;17.30;99.90;;;;;;5011435;28;20076;-51
2022/07/11 02:33:30;;;;;;;3.05;2.83;;;17.30;99.90;;;;;;4993709;28;20022;-52
2022/07/11 02:35:56;;;;;;;9.43;3.50;;;17.30;99.90;;;;;;5011334;28;20030;-47
2022/07/11 02:38:21;;;;;;;5.47;3.50;;;17.30;99.90;;;;;;5014222;28;20026;-55
2022/07/11 02:40:47;;;;;;;3.92;3.33;;;17.30;99.90;;;;;;5015364;28;20069;-52
2022/07/11 02:43:13;;;;;;;7.88;3.10;;;17.20;99.90;;;;;;5015383;28;20053;-52
2022/07/11 02:45:39;;;;;;;4.53;3.33;;;17.20;99.90;;;;;;5015327;28;20030;-55
2022/07/11 02:48:06;;;;;;;6.72;3.42;;;17.10;99.90;;;;;;5014422;28;20040;-48
2022/07/11 02:50:31;;;;;;;3.50;3.25;;;17.10;99.90;;;;;;5015095;28;20026;-55
2022/07/11 02:52:57;;;;;;;3.35;3.05;;;17.10;99.90;;;;;;4997182;28;20429;-54
2022/07/11 02:55:22;;;;;;;3.42;3.10;;;17.10;99.90;;;;;;5015089;28;20033;-51
2022/07/11 02:57:48;;;;;;;3.53;3.22;;;17.10;99.90;;;;;;5014163;28;20026;-53
2022/07/11 03:00:15;;;;;;;4.00;2.88;;;17.20;99.90;;;;;;5014725;28;20041;-52
2022/07/11 03:02:42;;;;;;;7.03;3.63;;;17.20;99.90;;;;;;5014315;28;20022;-54
2022/07/11 03:05:08;;;;;;;3.30;3.00;;;17.30;99.90;;;;;;5014638;28;20030;-53
2022/07/11 03:07:34;;;;;;;3.95;3.20;;;17.30;99.90;;;;;;5013784;28;20033;-50
2022/07/11 03:10:00;;;;;;;4.88;3.20;;;17.30;99.90;;;;;;4997006;28;20026;-52
2022/07/11 03:12:25;;;;;;;6.97;3.85;;;17.30;99.90;;;;;;5014371;28;20098;-55
2022/07/11 03:14:51;;;;;;;3.97;3.42;;;17.30;99.90;;;;;;5014593;28;20107;-51
2022/07/11 03:17:17;;;;;;;4.72;3.15;;;17.30;99.90;;;;;;5013674;28;20029;-56
2022/07/11 03:19:43;;;;;;;4.15;3.75;;;17.30;99.90;;;;;;5014232;28;20066;-49
2022/07/11 03:22:08;;;;;;;5.20;3.45;;;17.30;99.90;;;;;;5014190;28;20453;-54
2022/07/11 03:24:34;;;;;;;5.80;3.78;;;17.20;99.90;;;;;;4996656;28;20026;-55
2022/07/11 03:26:59;;;;;;;4.05;3.33;;;17.20;99.90;;;;;;5013511;28;20046;-53
2022/07/11 03:29:25;;;;;;;5.10;3.38;;;17.20;99.90;;;;;;5014269;28;20088;-50
2022/07/11 03:31:51;;;;;;;4.30;3.90;;;17.20;99.90;;;;;;5013922;28;20030;-51
2022/07/11 03:34:16;;;;;;;6.03;3.28;;;17.20;99.90;;;;;;5014089;28;20040;-53
2022/07/11 03:36:42;;;;;;;5.22;3.42;;;17.20;99.90;;;;;;5013899;28;20113;-53
2022/07/11 03:39:07;;;;;;;5.28;3.00;;;17.20;99.90;;;;;;5013320;28;20412;-48
2022/07/11 03:41:33;;;;;;;3.80;3.42;;;17.20;99.90;;;;;;5013942;28;20026;-48
2022/07/11 03:43:58;;;;;;;3.58;3.20;;;17.20;99.90;;;;;;5013767;28;20069;-51
2022/07/11 03:46:24;;;;;;;4.70;4.20;;;17.20;99.90;;;;;;5013883;28;20030;-55
2022/07/11 03:48:50;;;;;;;5.82;3.65;;;17.30;99.90;;;;;;5012636;28;20432;-50
2022/07/11 03:51:16;;;;;;;7.65;3.72;;;17.30;99.90;;;;;;5013640;28;20501;-51
2022/07/11 03:53:42;;;;;;;3.40;3.20;;;17.30;99.90;;;;;;5013606;28;20053;-52
2022/07/11 03:56:08;;;;;;;7.03;3.78;;;17.30;99.90;;;;;;5013713;28;20112;-54
2022/07/11 03:58:33;;;;;;;9.20;3.28;;;17.30;99.90;;;;;;5013275;28;20026;-51
2022/07/11 04:00:58;;;;;;;3.72;3.45;;;17.30;99.90;;;;;;5013534;28;20037;-48
2022/07/11 04:03:25;;;;;;;5.15;3.50;;;17.30;99.90;;;;;;5011635;28;20026;-53
2022/07/11 04:05:51;;;;;;;8.32;3.10;;;17.30;99.90;;;;;;4996000;28;20022;-57
2022/07/11 04:08:17;;;;;;;6.10;3.15;;;17.40;99.90;;;;;;5012585;28;20089;-54
2022/07/11 04:10:42;;;;;;;7.18;3.58;;;17.40;99.90;;;;;;4995840;28;20068;-52
2022/07/11 04:13:08;;;;;;;3.92;3.15;;;17.40;99.90;;;;;;5013074;28;20053;-51
2022/07/11 04:15:33;;;;;;;3.33;3.03;;;17.40;99.90;;;;;;5013317;28;20052;-53
2022/07/11 04:17:59;;;;;;;7.35;3.13;;;17.40;99.90;;;;;;5012504;28;20477;-52
2022/07/11 04:20:24;;;;;;;4.18;3.38;;;17.40;99.90;;;;;;5013189;28;20038;-52
2022/07/11 04:22:50;;;;;;;3.30;3.00;;;17.40;99.90;;;;;;5010932;28;20123;-49
2022/07/11 04:25:15;;;;;;;5.07;3.05;;;17.40;99.90;;;;;;4991187;28;20037;-51
2022/07/11 04:27:41;;;;;;;4.40;3.15;;;17.40;99.90;;;;;;5011250;28;20066;-46
2022/07/11 04:30:07;;;;;;;12.07;3.75;;;17.40;99.90;;;;;;5013054;28;20030;-52
2022/07/11 04:32:35;;;;;;;6.32;3.20;;;17.40;99.90;;;;;;5012853;28;20076;-56
2022/07/11 04:35:01;;;;;;;4.55;2.97;;;17.40;99.90;;;;;;5013102;28;20025;-49
2022/07/11 04:37:26;;;;;;;6.65;3.88;;;17.40;99.90;;;;;;5012119;28;20410;-51
2022/07/11 04:39:52;;;;;;;3.33;2.88;;;17.50;99.90;;;;;;5011043;28;20448;-55
2022/07/11 04:42:17;;;;;;;8.18;3.13;;;17.50;99.90;;;;;;5012390;28;20348;-52
2022/07/11 04:44:43;;;;;;;5.00;3.05;;;17.50;99.90;;;;;;4994638;28;20037;-53
2022/07/11 04:47:09;;;;;;;3.35;3.00;;;17.50;99.90;;;;;;5011956;28;20034;-53
2022/07/11 04:49:35;;;;;;;4.38;2.75;;;17.50;99.90;;;;;;5012569;28;20030;-52
2022/07/11 04:52:01;;;;;;;4.28;2.90;;;17.50;99.90;;;;;;5012322;28;20456;-53
2022/07/11 04:54:26;;;;;;;4.72;3.20;;;17.60;99.90;;;;;;5012613;28;20021;-52
2022/07/11 04:56:52;;;;;;;8.13;3.25;;;17.70;99.90;;;;;;5011849;28;20036;-49
2022/07/11 04:59:17;;;;;;;2.72;2.15;;;17.80;99.90;;;;;;5011343;28;20026;-53
2022/07/11 05:01:43;;;;;;;7.55;2.90;;;18.00;99.90;;;;;;5012373;28;20053;-50
2022/07/11 05:04:08;;;;;;;4.93;2.83;;;18.30;99.90;;;;;;5012366;28;20482;-53
2022/07/11 05:06:34;;;;;;;5.15;2.25;;;18.70;99.90;;;;;;5012396;28;20536;-48
2022/07/11 05:08:59;;;;;;;5.18;2.83;;;19.00;99.90;;;;;;5011625;28;20018;-47
2022/07/11 05:11:25;;;;;;;3.25;2.28;;;19.20;99.90;;;;;;5012433;28;20029;-52
2022/07/11 05:13:50;;;;;;;9.82;2.97;;;19.20;99.90;;;;;;5012130;28;20370;-55
2022/07/11 05:16:16;;;;;;;4.43;2.47;;;19.20;99.90;;;;;;5012111;28;20026;-54
2022/07/11 05:18:41;;;;;;;5.88;2.60;;;19.10;99.90;;;;;;4994073;28;20393;-49
2022/07/11 05:21:07;;;;;;;5.90;2.45;;;19.00;99.90;;;;;;5011736;28;20034;-54
2022/07/11 05:23:32;;;;;;;4.97;2.45;;;18.90;99.90;;;;;;5011968;28;20018;-53
2022/07/11 05:25:58;;;;;;;4.55;2.33;;;18.80;99.90;;;;;;5011964;28;20022;-55
2022/07/11 05:28:23;;;;;;;6.30;2.65;;;18.70;99.90;;;;;;5011434;28;20482;-48
2022/07/11 05:30:49;;;;;;;4.72;2.72;;;18.80;99.90;;;;;;5011811;28;20025;-51
2022/07/11 05:33:14;;;;;;;2.97;2.75;;;18.80;99.90;;;;;;5011728;28;20025;-50
2022/07/11 05:35:40;;;;;;;3.47;2.20;;;18.80;99.90;;;;;;5011725;28;20041;-53
2022/07/11 05:38:05;;;;;;;2.05;1.95;;;18.90;99.90;;;;;;5011018;28;20109;-53
2022/07/11 05:40:31;;;;;;;4.28;2.45;;;19.00;99.90;;;;;;5011592;28;20041;-54
2022/07/11 05:42:56;;;;;;;4.10;2.72;;;19.00;99.90;;;;;;5011314;28;20026;-48
2022/07/11 05:45:22;;;;;;;7.47;2.53;;;19.10;99.90;;;;;;5011661;28;20052;-52
2022/07/11 05:47:47;;;;;;;4.10;2.92;;;19.20;99.90;;;;;;5011008;28;20030;-50
2022/07/11 05:50:13;;;;;;;7.05;3.35;;;19.30;99.90;;;;;;5011812;28;20489;-54
2022/07/11 05:52:38;;;;;;;3.50;2.28;;;19.40;99.90;;;;;;5011524;28;20029;-46
2022/07/11 05:55:05;;;;;;;2.03;1.88;;;19.50;99.90;;;;;;5011640;28;20033;-56
2022/07/11 05:57:30;;;;;;;2.45;1.77;;;19.80;99.90;;;;;;5010314;28;20029;-53
2022/07/11 05:59:56;;;;;;;7.05;2.25;;;20.00;99.90;;;;;;5011541;28;20116;-53
2022/07/11 06:02:21;;;;;;;3.50;2.20;;;20.10;99.90;;;;;;5011214;28;20103;-49
2022/07/11 06:04:47;;;;;;;6.03;2.20;;;20.30;99.90;;;;;;5011678;28;20037;-51
2022/07/11 06:08:40;;;;;;;5.07;1.80;;;20.60;99.90;;;;;;5011093;28;20022;-54
2022/07/11 06:09:58;;;;;;;1.85;1.75;;;20.80;99.90;;;;;;5011457;28;20034;-53
2022/07/11 06:12:23;;;;;;;7.90;2.00;;;20.80;99.90;;;;;;5014363;28;20049;-56
2022/07/11 06:14:49;;;;;;;2.25;1.77;;;20.70;99.90;;;;;;5015515;28;20030;-53
2022/07/11 06:17:14;;;;;;;3.03;1.88;;;20.70;99.90;;;;;;5014501;28;20405;-53
2022/07/11 06:19:39;;;;;;;2.90;1.83;;;20.60;99.90;;;;;;5015454;28;20037;-53
2022/07/11 06:22:05;;;;;;;2.50;1.50;;;20.50;99.90;;;;;;5015220;28;20088;-51
2022/07/11 06:24:30;;;;;;;5.57;2.03;;;20.50;99.90;;;;;;5015397;28;20072;-48
2022/07/11 06:27:00;;;;;;;5.68;1.80;;;20.50;99.90;;;;;;5014592;28;20026;-54
2022/07/11 06:29:26;;;;;;;7.35;1.70;;;20.60;99.90;;;;;;5015164;28;20105;-53
2022/07/11 06:31:52;;;;;;;4.78;1.67;;;20.60;99.90;;;;;;5015149;28;20109;-48
2022/07/11 06:34:18;;;;;;;4.05;1.42;;;20.70;99.90;;;;;;5015081;28;20025;-54
2022/07/11 06:36:43;;;;;;;4.80;2.15;;;21.00;99.90;;;;;;4997174;28;20387;-56
2022/07/11 06:39:08;;;;;;;1.90;1.80;;;21.20;99.90;;;;;;5014369;28;20061;-54
2022/07/11 06:41:34;;;;;;;2.50;1.60;;;21.50;99.90;;;;;;5014690;28;20109;-55
2022/07/11 06:43:59;;;;;;;5.40;2.08;;;21.80;99.90;;;;;;5014808;28;20052;-50
2022/07/11 06:46:26;;;;;;;2.92;2.13;;;22.50;99.90;;;;;;5015120;28;20022;-51
2022/07/11 06:48:52;;;;;;;2.20;1.33;;;23.80;98.40;;;;;;5014170;28;20025;-52
2022/07/11 06:51:17;;;;;;;3.30;1.90;;;25.30;95.40;;;;;;5014973;28;20026;-50
2022/07/11 06:53:43;;;;;;;5.25;1.92;;;26.70;93.50;;;;;;5014880;28;20432;-44
2022/07/11 06:56:09;;;;;;;2.45;1.75;;;28.00;90.80;;;;;;5014490;28;20505;-50
2022/07/11 06:58:34;;;;;;;12.15;3.75;;;28.90;88.50;;;;;;5013896;28;20054;-52
2022/07/11 07:01:01;;;;;;;4.63;1.65;;;28.60;86.50;;;;;;5014287;28;20486;-49
2022/07/11 07:03:28;;;;;;;2.22;1.67;;;27.70;88.00;;;;;;5014301;28;20440;-50
2022/07/11 07:05:55;;;;;;;3.28;1.73;;;26.40;90.20;;;;;;5014135;28;20112;-51
2022/07/11 07:08:23;;;;;;;1.83;1.55;;;25.20;91.80;;;;;;5013378;28;20026;-49
2022/07/11 07:10:48;;;;;;;5.60;1.50;;;24.00;93.70;;;;;;5013723;28;20033;-52
2022/07/11 07:13:13;;;;;;;6.00;2.15;;;23.10;95.50;;;;;;5014387;28;20017;-52
2022/07/11 07:15:39;;;;;;;7.78;2.22;;;22.60;96.40;;;;;;5014306;28;20038;-49
2022/07/11 07:18:04;;;;;;;5.47;2.22;;;22.00;97.90;;;;;;5013226;28;20400;-53
2022/07/11 07:20:30;;;;;;;3.03;2.70;;;21.60;98.80;;;;;;5017219;28;20037;-55
2022/07/11 07:22:55;;;;;;;5.82;2.22;;;21.40;99.00;;;;;;5021640;28;20854;-50
2022/07/11 07:25:21;;;;;;;4.75;2.20;;;21.30;99.50;;;;;;5013462;28;20018;-52
2022/07/11 07:27:46;;;;;;;5.43;2.35;;;21.30;99.80;;;;;;5013433;28;20041;-55
2022/07/11 07:30:12;;;;;;;4.88;2.10;;;21.40;99.90;;;;;;5014156;28;20551;-55
2022/07/11 07:32:37;;;;;;;4.43;2.83;;;21.50;99.40;;;;;;5014478;28;20034;-49
2022/07/11 07:35:03;;;;;;;4.55;2.72;;;21.90;99.30;;;;;;4996075;28;20055;-51
2022/07/11 07:37:29;;;;;;;5.07;2.50;;;22.90;97.70;;;;;;4995913;28;20033;-55
2022/07/11 07:39:54;;;;;;;3.80;2.65;;;23.80;96.00;;;;;;4996161;28;20033;-50
2022/07/11 07:42:20;;;;;;;1.70;1.60;;;24.40;94.60;;;;;;5012983;28;20037;-49
2022/07/11 07:44:45;;;;;;;4.00;2.10;;;24.40;93.70;;;;;;5013652;28;20030;-49
2022/07/11 07:47:11;;;;;;;3.97;2.33;;;24.90;93.20;;;;;;5012540;28;20917;-53
2022/07/11 07:49:36;;;;;;;5.43;2.03;;;25.40;92.30;;;;;;5013393;28;20101;-49
2022/07/11 07:52:02;;;;;;;2.08;1.88;;;25.30;92.40;;;;;;5028244;22;20357;-56
2022/07/11 07:54:28;;;;;;;2.30;2.10;;;25.30;92.30;;;;;;5013630;28;20580;-47
2022/07/11 07:56:53;;;;;;;3.00;2.00;;;25.30;92.40;;;;;;5013192;28;20046;-49
2022/07/11 07:59:19;;;;;;;3.85;2.10;;;24.80;92.50;;;;;;5013868;28;20038;-47
2022/07/11 08:01:46;;;;;;;4.72;1.85;;;24.40;93.00;;;;;;5009512;28;20044;-45
2022/07/11 08:04:11;;;;;;;6.25;2.55;;;24.00;93.60;;;;;;5008829;28;20018;-44
2022/07/11 08:06:38;;;;;;;5.20;2.50;;;23.80;94.20;;;;;;5013674;28;20033;-47
2022/07/11 08:09:04;;;;;;;5.93;2.90;;;23.30;94.90;;;;;;5012952;28;20032;-44
2022/07/11 08:11:32;;;;;;;7.63;3.03;;;22.90;95.90;;;;;;5013368;28;20022;-48
2022/07/11 08:13:58;;;;;;;9.68;3.58;;;22.50;96.60;;;;;;5011164;28;20367;-46
2022/07/11 08:16:24;;;;;;;4.63;2.63;;;22.10;97.50;;;;;;5001181;28;20014;-45
2022/07/11 08:18:53;;;;;;;3.35;2.72;;;22.20;97.80;;;;;;5011448;28;20167;-47
2022/07/11 08:21:18;;;;;;;8.27;2.97;;;22.20;98.00;;;;;;5013215;28;20327;-54
2022/07/11 08:23:44;;;;;;;4.25;2.63;;;22.30;98.20;;;;;;5013100;28;20057;-44
2022/07/11 08:26:09;;;;;;;5.97;4.15;;;23.20;97.50;;;;;;4995494;28;20026;-45
2022/07/11 08:28:35;;;;;;;7.43;3.50;;;24.00;95.80;;;;;;5012375;28;20096;-45
2022/07/11 08:31:00;;;;;;;3.40;2.55;;;24.00;95.20;;;;;;5013054;28;20073;-48
2022/07/11 08:33:26;;;;;;;4.85;2.30;;;24.00;95.00;;;;;;5013195;28;20026;-47
2022/07/11 08:35:51;;;;;;;7.60;3.00;;;23.80;95.30;;;;;;5012035;28;20489;-45
2022/07/11 08:38:17;;;;;;;4.80;2.65;;;23.70;95.40;;;;;;5012276;28;20104;-47
2022/07/11 08:40:43;;;;;;;7.22;2.97;;;23.30;95.70;;;;;;5013322;28;20108;-46
2022/07/11 08:43:15;;;;;;;10.27;3.08;;;23.30;96.00;;;;;;5013035;28;20026;-47
2022/07/11 08:45:41;;;;;;;6.05;2.65;;;23.20;96.20;;;;;;5013126;28;20060;-45
2022/07/11 08:48:09;;;;;;;5.03;2.70;;;23.00;96.70;;;;;;5012291;28;20021;-50
2022/07/11 08:50:35;;;;;;;3.83;2.38;;;22.80;97.00;;;;;;5013284;28;20034;-47
2022/07/11 08:53:03;;;;;;;13.60;2.72;;;22.70;97.00;;;;;;5012727;28;20117;-47
2022/07/11 08:55:35;;;;;;;3.28;2.30;;;22.50;97.10;;;;;;5065540;27;20380;-47
2022/07/11 08:58:02;;;;;;;4.20;2.33;;;22.40;97.50;;;;;;5065086;28;20076;-45
2022/07/11 09:00:27;;;;;;;2.83;2.05;;;22.30;97.60;;;;;;5065812;28;20029;-46
2022/07/11 09:02:53;;;;;;;10.18;2.17;;;22.10;98.00;;;;;;5065618;28;20096;-47
2022/07/11 09:05:19;;;;;;;3.45;2.17;;;22.10;98.30;;;;;;5065974;28;20029;-44
2022/07/11 09:07:49;;;;;;;5.80;2.60;;;22.10;98.20;;;;;;5064790;28;20033;-48
2022/07/11 09:10:16;;;;;;;3.15;2.30;;;22.10;97.90;;;;;;5065698;28;20377;-47
2022/07/11 09:13:00;;;;;;;4.38;2.92;;;22.00;98.20;;;;;;5064549;28;20129;-46
2022/07/11 09:15:38;;;;;;;3.45;3.05;;;22.10;98.80;;;;;;5067042;28;20036;-49
2022/07/11 09:18:25;;;;;;;7.22;1.75;;;22.20;98.20;;;;;;5065833;28;20036;-46
2022/07/11 09:26:21;;;;;;;2.88;1.75;;;22.80;96.00;;;;;;5065145;28;20431;-48
2022/07/11 09:29:08;;;;;;;2.25;1.67;;;23.10;95.60;;;;;;5063991;28;20116;-50
2022/07/11 09:31:35;;;;;;;1.67;1.58;;;23.80;94.50;;;;;;5062554;28;20025;-48
2022/07/11 09:34:05;;;;;;;1.80;1.63;;;24.10;93.90;;;;;;5064678;28;20037;-47
2022/07/11 09:36:40;;;;;;;2.58;1.77;;;24.40;93.30;;;;;;5064770;27;20013;-49
2022/07/11 09:39:09;;;;;;;5.03;1.50;;;24.80;93.00;;;;;;5064308;27;20411;-45
2022/07/11 09:41:35;;;;;;;3.60;1.80;;;24.70;92.70;;;;;;5064717;28;20066;-45
2022/07/11 09:44:18;;;;;;;1.50;1.40;;;24.60;92.90;;;;;;5064765;28;20415;-45
2022/07/11 09:46:50;;;;;;;1.83;1.73;;;24.60;92.70;;;;;;5064252;27;20028;-45
2022/07/11 09:49:17;;;;;;;1.70;1.60;;;24.40;92.60;;;;;;5064533;28;20031;-45
2022/07/11 09:51:43;;;;;;;2.47;1.70;;;24.30;92.90;;;;;;5064306;28;20556;-47
2022/07/11 09:54:10;;;;;;;3.15;2.53;;;24.20;92.90;;;;;;5063087;28;20039;-43
2022/07/11 09:56:45;;;;;;;10.77;8.70;;;24.20;92.90;;;;;;5064858;28;20476;-46
2022/07/11 09:59:11;;;;;;;;;;;24.20;93.00;;;;;;5066503;28;20017;-44
2022/07/11 10:01:37;;;;;;;1.92;1.83;;;23.90;93.40;;;;;;5066077;28;19949;-48
2022/07/11 10:04:06;;;;;;;5.10;2.08;;;23.90;93.50;;;;;;5064776;28;20027;-52
2022/07/11 10:06:31;;;;;;;1.50;1.40;;;23.90;93.40;;;;;;5056731;27;20078;-45
2022/07/11 10:08:57;;;;;;;6.90;2.03;;;24.00;93.60;;;;;;5050295;28;20511;-47
2022/07/11 10:11:23;;;;;;;2.10;1.80;;;24.20;93.50;;;;;;5049861;28;20029;-46
2022/07/11 10:13:49;;;;;;;1.80;1.67;;;24.30;93.00;;;;;;5053877;27;20025;-46
2022/07/11 10:16:39;;;;;;;2.58;1.95;;;24.30;93.20;;;;;;5050089;28;20393;-47
2022/07/11 10:19:18;;;;;;;1.85;1.70;;;24.60;93.20;;;;;;5034674;28;20604;-44
2022/07/11 10:22:06;;;;;;;2.60;1.95;;;24.70;92.10;;;;;;5038327;28;20017;-42
2022/07/11 10:24:46;;;;;;;3.15;1.95;;;24.70;92.50;;;;;;5050576;28;20025;-42
2022/07/11 10:27:30;;;;;;;3.78;1.75;;;24.70;92.40;;;;;;5029086;28;20022;-42
2022/07/11 10:29:55;;;;;;;1.77;1.67;;;24.70;92.50;;;;;;5034963;28;20089;-46
2022/07/11 10:32:21;;;;;;;3.15;1.75;;;24.80;92.70;;;;;;5048798;28;20037;-46
2022/07/11 10:35:11;;;;;;;3.30;2.17;;;24.50;92.50;;;;;;5049881;28;20116;-44
2022/07/11 10:37:48;;;;;;;5.45;2.00;;;24.20;92.70;;;;;;5048451;28;20024;-48
2022/07/11 10:40:14;;;;;;;1.60;1.50;;;24.10;93.20;;;;;;5049653;27;20480;-55
2022/07/11 10:42:41;;;;;;;1.83;1.65;;;24.20;93.30;;;;;;5047570;28;20032;-44
2022/07/11 10:45:11;;;;;;;3.25;1.77;;;24.20;93.00;;;;;;5048975;28;20021;-46
2022/07/11 10:47:44;;;;;;;1.88;1.77;;;24.20;93.00;;;;;;5049028;28;20029;-43
2022/07/11 10:50:21;;;;;;;3.05;1.80;;;24.30;93.00;;;;;;5048932;27;20047;-47
2022/07/11 10:52:49;;;;;;;1.45;1.35;;;24.40;92.90;;;;;;5049071;27;20021;-45
2022/07/11 10:55:46;;;;;;;2.60;1.77;;;24.40;92.80;;;;;;5048924;27;20056;-47
2022/07/11 10:58:41;;;;;;;1.42;1.33;;;24.30;92.50;;;;;;5048410;28;20028;-51
2022/07/11 11:01:15;;;;;;;2.70;1.80;;;24.30;92.40;;;;;;5050785;28;20084;-52
2022/07/11 11:03:44;;;;;;;7.15;2.50;;;24.40;92.50;;;;;;5044810;28;20120;-49
2022/07/11 11:06:10;;;;;;;2.08;1.98;;;24.30;92.60;;;;;;5049443;28;20472;-44
2022/07/11 11:08:43;;;;;;;1.75;1.65;;;24.20;92.60;;;;;;5048077;28;20033;-46
2022/07/11 11:11:35;;;;;;;3.85;3.55;;;24.20;93.00;;;;;;5048776;28;20025;-44
2022/07/11 11:14:15;;;;;;;18.25;13.57;;;24.30;93.40;;;;;;5048745;28;20033;-47
2022/07/11 11:16:41;;;;;;;3.83;2.40;;;24.30;92.80;;;;;;5048188;28;20034;-43
2022/07/11 11:19:07;;;;;;;1.90;1.80;;;24.30;92.50;;;;;;5047610;28;20036;-43
2022/07/11 11:21:32;;;;;;;2.00;1.80;;;24.20;92.80;;;;;;5048123;28;20132;-47
2022/07/11 11:24:02;;;;;;;1.90;1.80;;;24.10;92.90;;;;;;5048739;28;20396;-49
2022/07/11 11:26:43;;;;;;;2.00;1.90;;;24.20;93.10;;;;;;5048384;28;20035;-46
2022/07/11 11:29:08;;;;;;;2.65;2.17;;;24.40;92.60;;;;;;5046991;28;20021;-45
2022/07/11 11:31:34;;;;;;;5.57;2.13;;;24.50;92.60;;;;;;5046971;28;20112;-50
2022/07/11 11:34:03;;;;;;;2.00;1.90;;;24.60;92.80;;;;;;5048697;28;20033;-48
2022/07/11 11:36:30;;;;;;;3.83;1.70;;;24.50;91.60;;;;;;5033343;28;20064;-49
2022/07/11 11:38:56;;;;;;;2.47;1.70;;;24.60;92.00;;;;;;5027929;28;20022;-52
2022/07/11 11:41:23;;;;;;;3.67;2.13;;;24.60;92.00;;;;;;5028434;28;20032;-51
2022/07/11 11:43:49;;;;;;;2.95;2.05;;;24.60;92.20;;;;;;5041521;28;20029;-46
2022/07/11 11:46:14;;;;;;;2.42;2.22;;;24.50;92.10;;;;;;5055532;27;20036;-45
2022/07/11 11:48:47;;;;;;;4.70;2.42;;;24.30;92.30;;;;;;5051194;27;20032;-45
2022/07/11 11:51:18;;;;;;;3.28;2.50;;;24.20;92.10;;;;;;5047897;28;20025;-45
2022/07/11 11:53:49;;;;;;;2.30;1.88;;;24.10;92.50;;;;;;5048056;28;20041;-47
2022/07/11 11:56:23;;;;;;;2.10;1.90;;;24.10;92.50;;;;;;5049550;28;20024;-44
2022/07/11 11:58:50;;;;;;;2.35;1.88;;;24.10;92.80;;;;;;5047072;28;20025;-52
2022/07/11 12:01:21;;;;;;;2.42;1.73;;;24.20;92.30;;;;;;5047638;28;20024;-50
2022/07/11 12:03:50;;;;;;;2.08;1.77;;;24.30;92.70;;;;;;5047534;28;20539;-51
2022/07/11 12:06:16;;;;;;;2.08;1.98;;;24.40;92.40;;;;;;5047967;28;20029;-45
2022/07/11 12:08:41;;;;;;;2.00;1.80;;;24.60;92.40;;;;;;5046909;28;20123;-48
2022/07/11 12:11:14;;;;;;;2.72;1.92;;;24.60;92.30;;;;;;5046696;28;20029;-44
2022/07/11 12:13:41;;;;;;;3.30;2.17;;;24.60;91.80;;;;;;5047501;28;20402;-46
2022/07/11 12:19:03;;;;;;;2.33;2.13;;;24.60;92.30;;;;;;5047925;28;20105;-47
2022/07/11 12:21:30;;;;;;;3.95;2.03;;;24.70;92.30;;;;;;5047360;28;20216;-47
2022/07/11 12:24:02;;;;;;;3.65;1.95;;;24.70;91.70;;;;;;5048108;28;20032;-50
2022/07/11 12:26:29;;;;;;;2.10;1.90;;;24.70;91.40;;;;;;5047987;28;20021;-43
2022/07/11 12:29:24;;;;;;;2.50;2.30;;;24.60;91.60;;;;;;5046693;28;20024;-48
2022/07/11 12:31:52;;;;;;;4.13;2.00;;;24.60;91.50;;;;;;5047591;28;20025;-46
2022/07/11 12:34:24;;;;;;;2.25;2.05;;;24.60;91.60;;;;;;5043128;28;20281;-48
2022/07/11 12:37:00;;;;;;;3.47;2.03;;;24.80;91.60;;;;;;5027114;28;20022;-49
2022/07/11 12:39:28;;;;;;;5.03;2.00;;;24.60;91.90;;;;;;5028097;28;20028;-55
2022/07/11 12:41:55;;;;;;;4.03;1.98;;;24.70;91.70;;;;;;5027515;28;20134;-46
2022/07/11 12:47:09;;;;;;;2.33;1.88;;;24.90;91.70;;;;;;5027302;28;20033;-50
2022/07/11 12:49:35;;;;;;;2.47;2.28;;;25.00;91.20;;;;;;5037804;28;20025;-46
2022/07/11 12:52:01;;;;;;;3.30;2.67;;;25.10;91.10;;;;;;5046444;28;20086;-53
2022/07/11 12:54:33;;;;;;;3.50;3.10;;;25.20;91.20;;;;;;5046794;28;20033;-47
2022/07/11 12:57:01;;;;;;;2.25;2.10;;;25.10;91.20;;;;;;5043251;28;20115;-49
2022/07/11 12:59:28;;;;;;;1.83;1.73;;;25.10;91.40;;;;;;5046479;28;20096;-48
2022/07/11 13:02:00;;;;;;;2.20;2.00;;;25.00;91.60;;;;;;5046847;28;20053;-46